createdAt,value
2022-12-25T00:00:32.824Z,101285.66
2022-12-25T00:02:59.405Z,101288.31
2022-12-25T00:05:25.916Z,101295.38
2022-12-25T00:07:52.357Z,101287.47
2022-12-25T00:10:18.869Z,101286.59
2022-12-25T00:12:45.294Z,101293.63
2022-12-25T00:15:11.719Z,101296.28
2022-12-25T00:17:38.717Z,101285.72
2022-12-25T00:20:05.751Z,101297.16
2022-12-25T00:22:32.169Z,101298.88
2022-12-25T00:24:58.600Z,101301.53
2022-12-25T00:27:25.010Z,101306.81
2022-12-25T00:29:51.685Z,101318.25
2022-12-25T00:32:18.115Z,101317.38
2022-12-25T00:34:44.559Z,101325.31
2022-12-25T00:37:13.052Z,101331.50
2022-12-25T00:39:40.618Z,101314.75
2022-12-25T00:42:07.064Z,101314.75
2022-12-25T00:44:33.547Z,101315.66
2022-12-25T00:47:02.341Z,101313.00
2022-12-25T00:49:29.992Z,101314.78
2022-12-25T00:51:56.622Z,101305.09
2022-12-25T00:54:23.037Z,101306.84
2022-12-25T00:56:49.481Z,101301.56
2022-12-25T00:59:15.897Z,101306.00
2022-12-25T01:01:42.580Z,101303.34
2022-12-25T01:04:10.508Z,101302.44
2022-12-25T01:06:36.970Z,101301.59
2022-12-25T01:09:03.520Z,101310.41
2022-12-25T01:11:30.062Z,101309.53
2022-12-25T01:13:56.476Z,101310.41
2022-12-25T01:16:22.955Z,101313.03
2022-12-25T01:18:49.392Z,101310.41
2022-12-25T01:21:16.396Z,101307.78
2022-12-25T01:23:43.482Z,101311.28
2022-12-25T01:26:10.950Z,101320.97
2022-12-25T01:28:37.476Z,101325.38
2022-12-25T01:31:04.411Z,101324.50
2022-12-25T01:33:30.833Z,101328.03
2022-12-25T01:35:57.290Z,101327.16
2022-12-25T01:38:23.779Z,101339.50
2022-12-25T01:40:50.214Z,101347.44
2022-12-25T01:43:30.489Z,101345.66
2022-12-25T01:45:57.010Z,101354.47
2022-12-25T01:48:26.672Z,101354.47
2022-12-25T01:50:58.784Z,101358.00
2022-12-25T01:53:25.514Z,101361.50
2022-12-25T01:55:55.993Z,101361.53
2022-12-25T01:58:22.443Z,101371.22
2022-12-25T02:00:48.862Z,101372.09
2022-12-25T02:03:15.366Z,101374.75
2022-12-25T02:05:41.809Z,101379.16
2022-12-25T02:08:10.014Z,101369.47
2022-12-25T02:10:36.460Z,101375.66
2022-12-25T02:13:02.916Z,101366.81
2022-12-25T02:15:52.720Z,101370.31
2022-12-25T02:18:31.324Z,101371.19
2022-12-25T02:21:19.575Z,101372.97
2022-12-25T02:24:20.665Z,101373.84
2022-12-25T02:26:49.716Z,101376.53
2022-12-25T02:29:30.750Z,101376.50
2022-12-25T02:32:05.507Z,101373.88
2022-12-25T02:34:34.073Z,101374.75
2022-12-25T02:37:26.561Z,101382.69
2022-12-25T02:40:16.029Z,101372.09
2022-12-25T02:42:55.863Z,101367.72
2022-12-25T02:45:43.415Z,101384.47
2022-12-25T02:48:09.712Z,101381.81
2022-12-25T02:50:36.183Z,101376.53
2022-12-25T02:53:02.638Z,101366.81
2022-12-25T02:55:32.712Z,101371.22
2022-12-25T02:58:01.592Z,101370.34
2022-12-25T03:00:28.071Z,101368.59
2022-12-25T03:02:54.565Z,101366.81
2022-12-25T03:05:23.383Z,101366.78
2022-12-25T03:07:49.801Z,101365.03
2022-12-25T03:10:16.245Z,101365.03
2022-12-25T03:12:46.566Z,101358.84
2022-12-25T03:15:13.010Z,101352.66
2022-12-25T03:17:39.425Z,101356.19
2022-12-25T03:20:06.400Z,101350.03
2022-12-25T03:22:32.854Z,101340.34
2022-12-25T03:24:59.299Z,101345.63
2022-12-25T03:27:25.825Z,101348.25
2022-12-25T03:29:52.291Z,101372.06
2022-12-25T03:32:37.585Z,101368.53
2022-12-25T03:35:48.556Z,101365.88
2022-12-25T03:38:20.836Z,101358.84
2022-12-25T03:41:00.900Z,101359.75
2022-12-25T03:43:48.495Z,101363.25
2022-12-25T03:46:15.277Z,101367.66
2022-12-25T03:48:42.624Z,101351.81
2022-12-25T03:51:09.964Z,101358.84
2022-12-25T03:53:41.630Z,101350.94
2022-12-25T03:56:08.036Z,101347.41
2022-12-25T03:58:34.474Z,101344.78
2022-12-25T04:01:00.969Z,101339.50
2022-12-25T04:03:27.490Z,101327.16
2022-12-25T04:05:53.965Z,101329.78
2022-12-25T04:08:20.405Z,101323.63
2022-12-25T04:10:46.832Z,101313.91
2022-12-25T04:13:13.245Z,101307.75
2022-12-25T04:15:39.725Z,101309.53
2022-12-25T04:18:06.151Z,101309.53
2022-12-25T04:20:32.619Z,101300.69
2022-12-25T04:22:59.065Z,101304.25
2022-12-25T04:25:25.513Z,101313.91
2022-12-25T04:27:51.939Z,101315.69
2022-12-25T04:30:18.395Z,101306.84
2022-12-25T04:32:44.852Z,101302.47
2022-12-25T04:35:11.450Z,101297.16
2022-12-25T04:37:37.880Z,101307.72
2022-12-25T04:40:04.824Z,101303.34
2022-12-25T04:42:31.263Z,101295.41
2022-12-25T04:44:57.660Z,101297.16
2022-12-25T04:47:24.086Z,101291.91
2022-12-25T04:49:50.534Z,101298.94
2022-12-25T04:52:16.945Z,101301.59
2022-12-25T04:54:43.395Z,101298.94
2022-12-25T04:57:09.843Z,101296.31
2022-12-25T04:59:36.275Z,101291.00
2022-12-25T05:02:02.762Z,101289.22
2022-12-25T05:04:29.287Z,101289.22
2022-12-25T05:06:55.714Z,101294.50
2022-12-25T05:09:22.169Z,101278.66
2022-12-25T05:11:48.595Z,101271.59
2022-12-25T05:14:15.353Z,101275.16
2022-12-25T05:16:41.963Z,101286.59
2022-12-25T05:19:08.381Z,101284.84
2022-12-25T05:21:34.823Z,101291.91
2022-12-25T05:24:01.243Z,101284.81
2022-12-25T05:26:27.695Z,101266.34
2022-12-25T05:28:54.290Z,101262.81
2022-12-25T05:31:21.008Z,101261.91
2022-12-25T05:33:51.300Z,101265.44
2022-12-25T05:36:17.991Z,101261.03
2022-12-25T05:38:44.399Z,101259.28
2022-12-25T05:41:10.822Z,101267.22
2022-12-25T05:43:37.251Z,101263.69
2022-12-25T05:46:07.614Z,101262.81
2022-12-25T05:48:34.621Z,101263.69
2022-12-25T05:51:05.892Z,101267.22
2022-12-25T05:53:32.339Z,101260.16
2022-12-25T05:56:03.816Z,101265.47
2022-12-25T05:58:30.990Z,101273.41
2022-12-25T06:00:57.481Z,101277.78
2022-12-25T06:03:24.192Z,101272.50
2022-12-25T06:05:50.704Z,101268.97
2022-12-25T06:08:17.120Z,101260.16
2022-12-25T06:10:43.558Z,101258.41
2022-12-25T06:13:09.968Z,101254.91
2022-12-25T06:15:39.436Z,101250.50
2022-12-25T06:18:06.108Z,101254.00
2022-12-25T06:20:32.588Z,101257.53
2022-12-25T06:22:59.045Z,101259.31
2022-12-25T06:25:25.487Z,101259.28
2022-12-25T06:27:51.911Z,101259.28
2022-12-25T06:30:18.367Z,101255.75
2022-12-25T06:32:44.785Z,101258.44
2022-12-25T06:35:11.181Z,101260.16
2022-12-25T06:37:37.622Z,101270.75
2022-12-25T06:40:04.437Z,101275.16
2022-12-25T06:42:30.908Z,101277.78
2022-12-25T06:44:57.391Z,101271.59
2022-12-25T06:47:23.801Z,101283.06
2022-12-25T06:49:50.206Z,101277.78
2022-12-25T06:52:16.625Z,101277.78
2022-12-25T06:54:43.071Z,101273.38
2022-12-25T06:57:09.511Z,101269.00
2022-12-25T06:59:36.152Z,101269.84
2022-12-25T07:02:02.720Z,101263.72
2022-12-25T07:04:34.180Z,101273.41
2022-12-25T07:07:06.119Z,101292.78
2022-12-25T07:09:35.017Z,101291.88
2022-12-25T07:12:15.161Z,101306.88
2022-12-25T07:14:41.826Z,101301.59
2022-12-25T07:17:08.262Z,101298.06
2022-12-25T07:19:38.235Z,101306.88
2022-12-25T07:22:07.585Z,101306.84
2022-12-25T07:24:34.032Z,101303.34
2022-12-25T07:27:00.490Z,101297.16
2022-12-25T07:29:26.926Z,101295.38
2022-12-25T07:31:53.407Z,101285.69
2022-12-25T07:34:19.877Z,101283.03
2022-12-25T07:36:46.496Z,101284.81
2022-12-25T07:39:12.931Z,101284.81
2022-12-25T07:41:39.365Z,101283.03
2022-12-25T07:44:05.812Z,101283.03
2022-12-25T07:46:32.226Z,101281.28
2022-12-25T07:48:58.652Z,101278.63
2022-12-25T07:51:25.061Z,101278.63
2022-12-25T07:53:51.493Z,101267.13
2022-12-25T07:56:19.053Z,101262.72
2022-12-25T07:58:45.580Z,101256.56
2022-12-25T08:01:17.276Z,101268.03
2022-12-25T08:03:44.087Z,101268.03
2022-12-25T08:06:10.809Z,101265.34
2022-12-25T08:08:37.753Z,101265.34
2022-12-25T08:11:04.463Z,101254.72
2022-12-25T08:13:31.475Z,101245.00
2022-12-25T08:16:01.244Z,101244.09
2022-12-25T08:18:30.244Z,101240.56
2022-12-25T08:20:56.977Z,101245.84
2022-12-25T08:23:23.391Z,101239.66
2022-12-25T08:25:49.878Z,101245.84
2022-12-25T08:28:16.330Z,101252.91
2022-12-25T08:30:42.771Z,101252.88
2022-12-25T08:33:09.224Z,101249.34
2022-12-25T08:35:35.791Z,101252.84
2022-12-25T08:38:02.226Z,101254.63
2022-12-25T08:40:29.521Z,101252.81
2022-12-25T08:42:56.587Z,101248.41
2022-12-25T08:45:23.030Z,101242.22
2022-12-25T08:48:42.099Z,101251.03
2022-12-25T08:51:10.635Z,101245.75
2022-12-25T08:53:37.098Z,101264.25
2022-12-25T08:56:03.825Z,101258.94
2022-12-25T08:58:30.279Z,101272.19
2022-12-25T09:00:56.849Z,101276.59
2022-12-25T09:03:23.908Z,101279.25
2022-12-25T09:05:51.089Z,101284.53
2022-12-25T09:08:17.551Z,101281.88
2022-12-25T09:10:43.993Z,101278.31
2022-12-25T09:13:10.421Z,101273.00
2022-12-25T09:15:38.573Z,101273.88
2022-12-25T09:18:05.393Z,101273.00
2022-12-25T09:20:31.863Z,101265.91
2022-12-25T09:22:58.404Z,101271.22
2022-12-25T09:25:24.896Z,101265.00
2022-12-25T09:27:51.325Z,101271.19
2022-12-25T09:30:17.761Z,101267.66
2022-12-25T09:32:44.235Z,101267.63
2022-12-25T09:35:10.775Z,101272.03
2022-12-25T09:37:37.335Z,101268.47
2022-12-25T09:40:04.222Z,101264.94
2022-12-25T09:42:30.937Z,101272.84
2022-12-25T09:44:58.875Z,101265.78
2022-12-25T09:47:29.831Z,101261.34
2022-12-25T09:50:01.160Z,101266.66
2022-12-25T09:52:42.710Z,101280.78
2022-12-25T09:55:19.756Z,101275.50
2022-12-25T09:57:50.565Z,101271.97
2022-12-25T10:00:19.663Z,101279.91
2022-12-25T10:03:12.467Z,101279.00
2022-12-25T10:06:07.946Z,101285.13
2022-12-25T10:09:07.441Z,101276.28
2022-12-25T10:11:33.723Z,101282.44
2022-12-25T10:14:20.335Z,101265.63
2022-12-25T10:16:59.531Z,101265.59
2022-12-25T10:19:35.406Z,101253.22
2022-12-25T10:22:02.362Z,101253.22
2022-12-25T10:24:33.539Z,101247.91
2022-12-25T10:27:01.186Z,101255.88
2022-12-25T10:29:27.618Z,101247.03
2022-12-25T10:31:54.928Z,101234.63
2022-12-25T10:34:21.391Z,101224.88
2022-12-25T10:36:50.122Z,101219.53
2022-12-25T10:39:21.639Z,101214.22
2022-12-25T10:42:00.524Z,101211.56
2022-12-25T10:44:26.972Z,101206.25
2022-12-25T10:46:57.809Z,101192.13
2022-12-25T10:49:27.006Z,101208.84
2022-12-25T10:51:53.806Z,101200.00
2022-12-25T10:54:23.087Z,101198.19
2022-12-25T10:57:03.896Z,101195.53
2022-12-25T10:59:34.485Z,101188.38
2022-12-25T11:02:10.141Z,101181.28
2022-12-25T11:04:36.659Z,101173.31
2022-12-25T11:07:20.382Z,101181.22
2022-12-25T11:09:57.831Z,101164.41
2022-12-25T11:12:31.743Z,101150.31
2022-12-25T11:15:04.087Z,101163.47
2022-12-25T11:17:30.531Z,101155.50
2022-12-25T11:19:58.363Z,101163.41
2022-12-25T11:22:25.127Z,101154.53
2022-12-25T11:24:51.571Z,101149.22
2022-12-25T11:27:21.762Z,101158.06
2022-12-25T11:29:56.399Z,101158.97
2022-12-25T11:32:25.387Z,101157.19
2022-12-25T11:34:51.809Z,101143.94
2022-12-25T11:37:37.525Z,101139.50
2022-12-25T11:40:04.990Z,101145.75
2022-12-25T11:42:38.932Z,101149.25
2022-12-25T11:45:06.855Z,101141.28
2022-12-25T11:47:55.058Z,101127.13
2022-12-25T11:50:27.266Z,101137.81
2022-12-25T11:52:53.890Z,101136.03
2022-12-25T11:55:42.663Z,101143.06
2022-12-25T11:58:22.998Z,101150.13
2022-12-25T12:00:50.009Z,101143.03
2022-12-25T12:03:27.475Z,101140.41
2022-12-25T12:05:57.466Z,101144.75
2022-12-25T12:08:23.903Z,101140.25
2022-12-25T12:11:18.019Z,101148.22
2022-12-25T12:14:14.101Z,101144.66
2022-12-25T12:16:42.878Z,101145.53
2022-12-25T12:19:29.235Z,101138.44
2022-12-25T12:21:56.708Z,101141.03
2022-12-25T12:24:23.160Z,101137.47
2022-12-25T12:27:06.017Z,101124.28
2022-12-25T12:29:44.742Z,101112.72
2022-12-25T12:32:26.270Z,101116.25
2022-12-25T12:34:52.831Z,101111.88
2022-12-25T12:37:26.014Z,101105.69
2022-12-25T12:39:55.540Z,101107.38
2022-12-25T12:42:26.212Z,101110.88
2022-12-25T12:44:53.313Z,101094.94
2022-12-25T12:47:28.546Z,101103.72
2022-12-25T12:49:58.825Z,101101.03
2022-12-25T12:52:30.949Z,101084.19
2022-12-25T12:55:05.880Z,101072.69
2022-12-25T12:57:33.404Z,101070.03
2022-12-25T13:00:04.850Z,101062.09
2022-12-25T13:02:48.504Z,101046.16
2022-12-25T13:05:20.410Z,101044.38
2022-12-25T13:07:58.893Z,101042.56
2022-12-25T13:10:27.176Z,101040.81
2022-12-25T13:12:55.010Z,101049.69
2022-12-25T13:15:21.479Z,101048.75
2022-12-25T13:17:47.892Z,101054.94
2022-12-25T13:20:22.799Z,101049.66
2022-12-25T13:22:52.909Z,101035.59
2022-12-25T13:25:22.830Z,101045.28
2022-12-25T13:27:56.591Z,101031.13
2022-12-25T13:30:23.531Z,101023.16
2022-12-25T13:32:50.101Z,101023.16
2022-12-25T13:35:16.608Z,101017.00
2022-12-25T13:37:43.410Z,101023.25
2022-12-25T13:40:39.278Z,101024.97
2022-12-25T13:43:05.869Z,101024.97
2022-12-25T13:45:32.399Z,101024.16
2022-12-25T13:48:17.840Z,101025.06
2022-12-25T13:50:44.256Z,101016.25
2022-12-25T13:53:12.913Z,101009.19
2022-12-25T13:55:39.353Z,101019.88
2022-12-25T13:58:09.254Z,101021.66
2022-12-25T14:00:39.517Z,101019.03
2022-12-25T14:03:07.187Z,101015.59
2022-12-25T14:05:42.087Z,101016.41
2022-12-25T14:08:14.854Z,101011.97
2022-12-25T14:10:41.383Z,101015.53
2022-12-25T14:13:11.050Z,101009.34
2022-12-25T14:15:39.742Z,101013.84
2022-12-25T14:18:06.319Z,101011.19
2022-12-25T14:20:41.199Z,101010.31
2022-12-25T14:23:07.791Z,100987.38
2022-12-25T14:25:40.665Z,101000.56
2022-12-25T14:28:09.702Z,100975.88
2022-12-25T14:30:36.405Z,100968.75
2022-12-25T14:33:02.898Z,100964.22
2022-12-25T14:35:29.333Z,100965.09
2022-12-25T14:37:57.079Z,100971.38
2022-12-25T14:40:28.482Z,100968.72
2022-12-25T14:43:05.603Z,100968.72
2022-12-25T14:45:36.240Z,100959.03
2022-12-25T14:48:17.460Z,100960.81
2022-12-25T14:51:00.923Z,100959.94
2022-12-25T14:53:56.670Z,100954.63
2022-12-25T14:56:24.365Z,100962.63
2022-12-25T14:59:00.866Z,100958.22
2022-12-25T15:01:34.081Z,100955.56
2022-12-25T15:04:10.520Z,100951.19
2022-12-25T15:06:40.792Z,100943.22
2022-12-25T15:09:15.274Z,100952.03
2022-12-25T15:11:41.731Z,100954.66
2022-12-25T15:14:08.142Z,100958.19
2022-12-25T15:16:41.181Z,100956.44
2022-12-25T15:19:08.231Z,100967.94
2022-12-25T15:21:36.275Z,100960.03
2022-12-25T15:24:02.776Z,100954.66
2022-12-25T15:26:30.441Z,100952.03
2022-12-25T15:28:57.112Z,100938.75
2022-12-25T15:31:30.838Z,100936.09
2022-12-25T15:33:58.601Z,100934.31
2022-12-25T15:36:25.099Z,100926.34
2022-12-25T15:38:51.747Z,100918.38
2022-12-25T15:41:38.343Z,100917.53
2022-12-25T15:44:05.353Z,100914.97
2022-12-25T15:46:31.932Z,100904.31
2022-12-25T15:48:58.431Z,100907.88
2022-12-25T15:51:24.875Z,100907.91
2022-12-25T15:53:51.483Z,100910.56
2022-12-25T15:56:17.933Z,100899.13
2022-12-25T15:58:44.371Z,100901.75
2022-12-25T16:01:14.936Z,100894.66
2022-12-25T16:03:42.397Z,100905.28
2022-12-25T16:06:12.677Z,100891.16
2022-12-25T16:08:39.126Z,100896.50
2022-12-25T16:11:05.701Z,100891.25
2022-12-25T16:13:32.197Z,100894.81
2022-12-25T16:15:58.725Z,100890.38
2022-12-25T16:18:25.167Z,100885.94
2022-12-25T16:20:51.913Z,100879.75
2022-12-25T16:23:18.336Z,100880.56
2022-12-25T16:25:44.889Z,100868.28
2022-12-25T16:28:11.307Z,100862.97
2022-12-25T16:30:38.395Z,100869.13
2022-12-25T16:33:04.917Z,100859.41
2022-12-25T16:35:31.603Z,100861.19
2022-12-25T16:37:58.071Z,100859.41
2022-12-25T16:40:24.502Z,100864.72
2022-12-25T16:42:50.931Z,100858.53
2022-12-25T16:45:17.493Z,100855.91
2022-12-25T16:47:43.928Z,100854.13
2022-12-25T16:50:10.787Z,100847.94
2022-12-25T16:52:37.280Z,100846.19
2022-12-25T16:55:04.019Z,100843.53
2022-12-25T16:57:31.655Z,100839.13
2022-12-25T16:59:58.138Z,100832.97
2022-12-25T17:02:24.746Z,100825.88
2022-12-25T17:04:51.434Z,100821.41
2022-12-25T17:07:17.987Z,100818.75
2022-12-25T17:09:47.356Z,100819.66
2022-12-25T17:12:13.773Z,100815.25
2022-12-25T17:14:40.211Z,100810.78
2022-12-25T17:17:06.721Z,100812.56
2022-12-25T17:19:33.189Z,100813.47
2022-12-25T17:21:59.657Z,100809.94
2022-12-25T17:24:26.543Z,100815.28
2022-12-25T17:26:52.979Z,100813.53
2022-12-25T17:29:22.371Z,100804.75
2022-12-25T17:31:49.419Z,100804.78
2022-12-25T17:34:15.970Z,100807.44
2022-12-25T17:36:42.545Z,100802.91
2022-12-25T17:39:09.405Z,100796.69
2022-12-25T17:41:35.897Z,100803.75
2022-12-25T17:44:02.344Z,100793.97
2022-12-25T17:46:29.669Z,100789.56
2022-12-25T17:48:57.239Z,100786.06
2022-12-25T17:51:26.021Z,100783.38
2022-12-25T17:53:54.198Z,100782.41
2022-12-25T17:56:21.128Z,100778.88
2022-12-25T17:58:55.388Z,100776.22
2022-12-25T18:01:22.372Z,100777.06
2022-12-25T18:03:49.114Z,100770.00
2022-12-25T18:06:17.145Z,100759.38
2022-12-25T18:08:43.889Z,100757.63
2022-12-25T18:11:12.725Z,100745.25
2022-12-25T18:13:39.156Z,100748.81
2022-12-25T18:16:06.806Z,100745.25
2022-12-25T18:18:33.598Z,100751.44
2022-12-25T18:21:00.158Z,100741.72
2022-12-25T18:23:26.599Z,100729.31
2022-12-25T18:25:53.118Z,100740.78
2022-12-25T18:28:19.677Z,100731.03
2022-12-25T18:30:46.258Z,100738.94
2022-12-25T18:33:12.720Z,100737.22
2022-12-25T18:35:42.609Z,100736.31
2022-12-25T18:38:10.079Z,100725.69
2022-12-25T18:40:43.484Z,100726.63
2022-12-25T18:43:10.163Z,100724.88
2022-12-25T18:45:36.700Z,100719.56
2022-12-25T18:48:03.549Z,100712.47
2022-12-25T18:50:30.291Z,100705.34
2022-12-25T18:52:56.727Z,100702.66
2022-12-25T18:55:23.187Z,100694.72
2022-12-25T18:57:49.653Z,100691.19
2022-12-25T19:00:17.386Z,100688.53
2022-12-25T19:02:44.972Z,100685.88
2022-12-25T19:05:12.118Z,100677.09
2022-12-25T19:07:38.803Z,100679.72
2022-12-25T19:10:07.154Z,100675.19
2022-12-25T19:12:33.619Z,100673.50
2022-12-25T19:15:02.371Z,100673.50
2022-12-25T19:17:31.872Z,100668.22
2022-12-25T19:20:01.857Z,100661.13
2022-12-25T19:22:33.181Z,100654.91
2022-12-25T19:24:59.708Z,100653.06
2022-12-25T19:27:27.346Z,100648.56
2022-12-25T19:29:53.811Z,100655.59
2022-12-25T19:32:20.295Z,100653.84
2022-12-25T19:34:47.781Z,100655.59
2022-12-25T19:37:14.198Z,100648.47
2022-12-25T19:39:40.857Z,100643.97
2022-12-25T19:42:07.271Z,100637.72
2022-12-25T19:44:33.705Z,100626.25
2022-12-25T19:47:00.214Z,100631.56
2022-12-25T19:49:26.672Z,100624.50
2022-12-25T19:51:53.107Z,100615.69
2022-12-25T19:54:20.241Z,100613.84
2022-12-25T19:56:47.298Z,100607.63
2022-12-25T19:59:13.930Z,100601.50
2022-12-25T20:01:41.779Z,100597.06
2022-12-25T20:04:08.428Z,100613.00
2022-12-25T20:06:35.801Z,100613.00
2022-12-25T20:09:05.789Z,100611.19
2022-12-25T20:11:32.905Z,100611.13
2022-12-25T20:13:59.355Z,100597.81
2022-12-25T20:16:25.949Z,100593.38
2022-12-25T20:18:52.468Z,100596.03
2022-12-25T20:21:20.789Z,100601.44
2022-12-25T20:23:48.342Z,100605.88
2022-12-25T20:26:15.450Z,100612.94
2022-12-25T20:28:42.002Z,100620.00
2022-12-25T20:31:11.118Z,100609.28
2022-12-25T20:33:37.658Z,100615.47
2022-12-25T20:36:04.546Z,100607.50
2022-12-25T20:38:31.033Z,100609.25
2022-12-25T20:43:52.831Z,100608.41
2022-12-25T20:46:19.409Z,100609.25
2022-12-25T20:48:45.924Z,100602.19
2022-12-25T20:51:13.834Z,100600.38
2022-12-25T20:53:40.562Z,100606.56
2022-12-25T20:56:09.899Z,100604.78
2022-12-25T20:58:36.528Z,100605.66
2022-12-25T21:01:20.972Z,100604.78
2022-12-25T21:03:47.683Z,100607.47
2022-12-25T21:06:14.181Z,100613.69
2022-12-25T21:08:40.793Z,100615.44
2022-12-25T21:11:07.532Z,100612.81
2022-12-25T21:13:38.448Z,100608.44
2022-12-25T21:16:10.189Z,100605.78
2022-12-25T21:18:36.844Z,100608.41
2022-12-25T21:21:04.391Z,100615.44
2022-12-25T21:23:32.237Z,100606.59
2022-12-25T21:26:00.025Z,100601.25
2022-12-25T21:28:27.579Z,100596.88
2022-12-25T21:30:54.148Z,100595.22
2022-12-25T21:33:20.661Z,100595.28
2022-12-25T21:35:47.238Z,100592.66
2022-12-25T21:38:13.727Z,100592.69
2022-12-25T21:40:44.539Z,100598.81
2022-12-25T21:43:13.889Z,100589.16
2022-12-25T21:45:40.336Z,100589.19
2022-12-25T21:48:06.783Z,100582.97
2022-12-25T21:50:38.946Z,100586.53
2022-12-25T21:53:08.366Z,100581.19
2022-12-25T21:55:34.835Z,100582.09
2022-12-25T21:58:03.278Z,100583.00
2022-12-25T22:00:29.744Z,100584.78
2022-12-25T22:02:57.593Z,100583.06
2022-12-25T22:05:24.178Z,100580.41
2022-12-25T22:07:53.002Z,100573.25
2022-12-25T22:10:19.464Z,100573.22
2022-12-25T22:12:45.942Z,100573.22
2022-12-25T22:15:12.408Z,100572.28
2022-12-25T22:17:39.915Z,100577.59
2022-12-25T22:20:08.122Z,100575.84
2022-12-25T22:22:34.572Z,100567.84
2022-12-25T22:25:01.863Z,100580.22
2022-12-25T22:27:35.992Z,100576.69
2022-12-25T22:30:02.691Z,100579.34
2022-12-25T22:32:29.209Z,100590.81
2022-12-25T22:34:55.710Z,100585.38
2022-12-25T22:37:22.133Z,100588.00
2022-12-25T22:39:48.577Z,100588.84
2022-12-25T22:42:15.063Z,100581.63
2022-12-25T22:44:41.533Z,100579.00
2022-12-25T22:47:08.080Z,100573.00
2022-12-25T22:49:34.551Z,100572.16
2022-12-25T22:52:00.983Z,100578.28
2022-12-25T22:54:28.890Z,100584.41
2022-12-25T22:56:55.701Z,100592.31
2022-12-25T22:59:23.622Z,100589.59
2022-12-25T23:01:51.844Z,100580.88
2022-12-25T23:04:18.462Z,100581.75
2022-12-25T23:06:46.420Z,100585.25
2022-12-25T23:09:18.877Z,100588.72
2022-12-25T23:11:48.837Z,100592.25
2022-12-25T23:14:15.368Z,100595.03
2022-12-25T23:16:41.891Z,100598.63
2022-12-25T23:19:08.465Z,100596.03
2022-12-25T23:21:34.945Z,100598.69
2022-12-25T23:24:01.572Z,100598.81
2022-12-25T23:26:27.998Z,100591.81
2022-12-25T23:28:54.448Z,100594.44
2022-12-25T23:31:24.480Z,100591.81
2022-12-25T23:33:51.150Z,100595.31
2022-12-25T23:36:17.705Z,100593.53
2022-12-25T23:38:44.134Z,100596.16
2022-12-25T23:41:10.645Z,100604.16
2022-12-25T23:43:37.042Z,100590.03
2022-12-25T23:46:03.629Z,100586.50
2022-12-25T23:48:30.085Z,100582.06
2022-12-25T23:50:56.551Z,100582.19
2022-12-25T23:53:23.086Z,100576.06
2022-12-25T23:55:55.391Z,100568.16
2022-12-25T23:58:22.361Z,100573.59
